Time;durP1;ratioP1;P1;durP2;ratioP2;P2;SDS_P1;SDS_P2;PMS_P1;PMS_P2;Temp;Humidity;BMP_temperature;BMP_pressure;BME280_temperature;BME280_humidity;BME280_pressure;Samples;Min_cycle;Max_cycle;Signal;HPM_P1;HPM_P2
2022/08/25 00:01:11;;;;;;;6.20;4.50;;;;;;;22.88;57.61;100449.59;5054265;28;20460;-70
2022/08/25 00:03:38;;;;;;;5.17;4.53;;;;;;;22.84;57.98;100442.69;5056374;28;20827;-69
2022/08/25 00:06:07;;;;;;;5.00;4.50;;;;;;;22.79;58.67;100445.00;5058203;28;20471;-69
2022/08/25 00:08:36;;;;;;;7.13;4.73;;;;;;;22.81;58.93;100445.72;5061795;28;20457;-70
2022/08/25 00:11:04;;;;;;;5.63;5.13;;;;;;;22.75;59.28;100449.03;5051691;28;20487;-69
2022/08/25 00:13:31;;;;;;;6.03;5.20;;;;;;;22.76;59.84;100437.06;5054375;28;20458;-69
2022/08/25 00:15:58;;;;;;;6.53;4.67;;;;;;;22.72;59.93;100441.97;5050155;28;20476;-70
2022/08/25 00:18:25;;;;;;;5.97;5.37;;;;;;;22.75;60.24;100438.97;5048867;28;20468;-70
2022/08/25 00:20:51;;;;;;;5.47;4.93;;;;;;;22.76;60.19;100439.81;5057519;28;20459;-70
2022/08/25 00:23:19;;;;;;;5.90;5.00;;;;;;;22.77;60.19;100444.28;5059284;28;20551;-70
2022/08/25 00:25:46;;;;;;;6.93;5.10;;;;;;;22.73;60.94;100446.47;5057730;28;20475;-69
2022/08/25 00:28:15;;;;;;;5.77;5.17;;;;;;;22.71;60.88;100440.25;5059385;28;20458;-69
2022/08/25 00:30:43;;;;;;;6.00;5.40;;;;;;;22.67;61.32;100445.16;5053785;28;20463;-69
2022/08/25 00:33:09;;;;;;;6.33;5.60;;;;;;;22.67;61.22;100445.16;5061214;28;20484;-70
2022/08/25 00:35:36;;;;;;;5.80;5.20;;;;;;;22.68;61.44;100444.16;5063895;28;21025;-69
2022/08/25 00:38:03;;;;;;;7.87;5.03;;;;;;;22.63;61.80;100442.84;5062410;28;20451;-70
2022/08/25 00:40:31;;;;;;;6.80;6.10;;;;;;;22.58;62.40;100450.69;5053051;28;20989;-69
2022/08/25 00:42:58;;;;;;;6.97;5.70;;;;;;;22.58;62.33;100445.19;5063118;28;20537;-69
2022/08/25 00:45:25;;;;;;;7.37;5.10;;;;;;;22.59;62.32;100446.91;5049544;28;20457;-69
2022/08/25 00:47:51;;;;;;;7.03;5.60;;;;;;;22.56;62.70;100445.31;5045050;28;20456;-70
2022/08/25 00:50:19;;;;;;;7.50;5.43;;;;;;;22.53;63.03;100451.13;5057573;28;20464;-70
2022/08/25 00:52:49;;;;;;;6.00;5.10;;;;;;;22.53;63.33;100451.13;5053350;28;20485;-70
2022/08/25 00:55:21;;;;;;;6.87;5.30;;;;;;;22.46;63.86;100449.97;5047376;28;20537;-69
2022/08/25 00:57:54;;;;;;;6.87;5.23;;;;;;;22.43;64.17;100447.50;5055451;28;21135;-68
2022/08/25 01:00:26;;;;;;;5.90;5.30;;;;;;;22.39;64.39;100446.94;5058315;28;20553;-70
2022/08/25 01:02:53;;;;;;;8.03;5.33;;;;;;;22.36;64.99;100449.09;5055115;28;20444;-69
2022/08/25 01:05:20;;;;;;;7.70;5.63;;;;;;;22.27;65.42;100450.81;5065565;28;20439;-69
2022/08/25 01:07:49;;;;;;;10.10;5.60;;;;;;;22.21;65.72;100449.53;5037062;28;20437;-69
2022/08/25 01:10:17;;;;;;;8.03;6.03;;;;;;;22.19;66.09;100442.44;5050098;28;20791;-69
2022/08/25 01:12:43;;;;;;;11.43;7.90;;;;;;;22.16;66.14;100443.59;5064390;28;20994;-69
2022/08/25 01:15:13;;;;;;;7.67;6.10;;;;;;;22.18;66.42;100446.16;5063646;28;20459;-69
2022/08/25 01:17:46;;;;;;;7.70;6.47;;;;;;;22.17;66.41;100445.31;5051515;28;20484;-69
2022/08/25 01:20:13;;;;;;;6.63;6.00;;;;;;;22.11;66.84;100450.50;5060579;28;21020;-69
2022/08/25 01:22:41;;;;;;;7.07;5.80;;;;;;;22.11;66.81;100445.00;5066594;28;20454;-70
2022/08/25 01:25:23;;;;;;;6.13;5.53;;;;;;;22.05;67.27;100440.97;5056317;28;20437;-68
2022/08/25 01:27:50;;;;;;;8.80;6.30;;;;;;;22.06;67.32;100445.44;5056016;28;20431;-69
2022/08/25 01:30:17;;;;;;;6.63;6.00;;;;;;;21.92;68.25;100451.34;5062052;28;20826;-69
2022/08/25 01:32:44;;;;;;;6.57;5.97;;;;;;;21.86;68.86;100448.13;5053794;28;20795;-68
2022/08/25 01:35:13;;;;;;;8.10;6.13;;;;;;;21.79;69.52;100451.59;5059912;28;20439;-71
2022/08/25 01:37:41;;;;;;;6.30;5.70;;;;;;;21.60;73.26;100446.94;5046914;28;20451;-69
2022/08/25 01:40:09;;;;;;;6.57;5.70;;;;;;;21.58;72.18;100454.44;5054668;28;20968;-69
2022/08/25 01:42:47;;;;;;;6.07;5.47;;;;;;;21.64;73.11;100457.50;5041815;28;20451;-70
2022/08/25 01:45:14;;;;;;;7.87;6.47;;;;;;;21.60;73.52;100458.78;5048529;28;20559;-68
2022/08/25 01:47:40;;;;;;;6.77;6.03;;;;;;;21.40;74.58;100454.19;5059725;28;20442;-70
2022/08/25 01:50:07;;;;;;;9.50;5.60;;;;;;;21.36;75.25;100460.94;5068703;28;20977;-67
2022/08/25 01:52:45;;;;;;;9.90;5.50;;;;;;;21.37;75.65;100451.72;5053342;28;20490;-69
2022/08/25 01:55:13;;;;;;;7.10;5.90;;;;;;;21.33;74.85;100453.88;5048913;28;20448;-70
2022/08/25 01:57:39;;;;;;;6.80;5.57;;;;;;;21.28;75.19;100458.91;5056982;28;22151;-69
2022/08/25 02:00:08;;;;;;;9.13;6.20;;;;;;;21.25;75.93;100461.91;5044584;28;20514;-69
2022/08/25 02:02:34;;;;;;;7.60;5.80;;;;;;;21.20;76.19;100455.97;5043043;28;20455;-69
2022/08/25 02:05:01;;;;;;;9.13;6.13;;;;;;;21.14;76.99;100456.50;5060795;28;20462;-69
2022/08/25 02:07:28;;;;;;;8.13;5.80;;;;;;;21.12;78.35;100458.53;5060635;28;20466;-68
2022/08/25 02:09:54;;;;;;;8.13;5.87;;;;;;;21.10;79.14;100461.41;5037180;28;20515;-69
2022/08/25 02:12:22;;;;;;;12.83;6.13;;;;;;;21.04;79.62;100454.59;5065876;28;21015;-69
2022/08/25 02:14:49;;;;;;;7.90;6.23;;;;;;;21.00;79.20;100463.22;5059622;28;20459;-69
2022/08/25 02:17:16;;;;;;;8.20;6.33;;;;;;;20.90;79.64;100454.09;5067818;28;20991;-69
2022/08/25 02:19:42;;;;;;;6.80;6.13;;;;;;;20.81;79.83;100459.38;5040721;28;20466;-70
2022/08/25 02:22:11;;;;;;;9.30;5.70;;;;;;;20.77;79.92;100457.03;5057885;28;20462;-69
2022/08/25 02:24:38;;;;;;;6.87;6.27;;;;;;;20.61;81.44;100461.09;5081525;28;20443;-68
2022/08/25 02:27:05;;;;;;;7.27;6.00;;;;;;;20.48;81.81;100452.19;5067015;28;20865;-69
2022/08/25 02:29:33;;;;;;;9.23;6.10;;;;;;;20.61;80.84;100454.75;5056623;28;20462;-69
2022/08/25 02:32:00;;;;;;;7.27;6.07;;;;;;;20.54;82.14;100457.13;5054033;28;20855;-69
2022/08/25 02:34:26;;;;;;;6.60;6.00;;;;;;;20.56;81.43;100455.16;5064525;28;20466;-73
2022/08/25 02:36:53;;;;;;;6.50;5.80;;;;;;;20.50;82.47;100450.19;5058537;28;20471;-69
2022/08/25 02:39:19;;;;;;;7.13;5.80;;;;;;;20.37;82.97;100449.50;5062341;28;20471;-69
2022/08/25 02:41:46;;;;;;;10.03;6.43;;;;;;;20.41;83.08;100445.50;5058056;28;20435;-69
2022/08/25 02:44:13;;;;;;;8.57;6.50;;;;;;;20.25;83.21;100443.22;5060997;28;20452;-69
2022/08/25 02:46:40;;;;;;;8.23;6.63;;;;;;;20.10;84.36;100445.41;5052132;28;20477;-69
2022/08/25 02:49:07;;;;;;;7.43;6.40;;;;;;;20.28;83.42;100458.50;5063771;28;20447;-70
2022/08/25 02:51:35;;;;;;;6.83;6.10;;;;;;;20.35;82.48;100454.22;5058363;28;20443;-70
2022/08/25 02:54:03;;;;;;;7.43;6.23;;;;;;;20.25;82.38;100461.50;5058569;28;20488;-68
2022/08/25 02:56:31;;;;;;;8.33;5.60;;;;;;;20.30;81.98;100445.56;5059722;28;20490;-69
2022/08/25 02:58:58;;;;;;;7.30;6.60;;;;;;;20.17;83.35;100452.09;5054277;28;20463;-68
2022/08/25 03:01:25;;;;;;;7.90;6.20;;;;;;;20.28;82.94;100442.94;5052330;28;20988;-68
2022/08/25 03:03:53;;;;;;;7.23;6.53;;;;;;;20.07;83.86;100444.78;5039023;28;20436;-70
2022/08/25 03:06:23;;;;;;;11.43;7.10;;;;;;;20.11;83.76;100441.66;5061211;28;20479;-69
2022/08/25 03:08:50;;;;;;;7.53;6.00;;;;;;;20.02;84.58;100441.59;5054670;28;20463;-68
2022/08/25 03:11:17;;;;;;;7.33;6.37;;;;;;;19.92;85.30;100436.91;5050603;28;20506;-70
2022/08/25 03:13:44;;;;;;;6.40;5.80;;;;;;;19.97;85.01;100444.72;5059014;28;20996;-68
2022/08/25 03:16:10;;;;;;;8.43;6.37;;;;;;;19.96;85.54;100442.94;5058897;28;21012;-68
2022/08/25 03:18:37;;;;;;;7.60;6.50;;;;;;;20.08;84.40;100439.19;5052866;28;20455;-69
2022/08/25 03:21:05;;;;;;;10.90;6.00;;;;;;;20.02;85.30;100434.25;5053440;28;20460;-68
2022/08/25 03:23:32;;;;;;;8.40;6.60;;;;;;;19.74;87.42;100424.75;5049462;28;20501;-69
2022/08/25 03:28:43;;;;;;;8.60;6.27;;;;;;;19.89;86.29;100439.88;5060053;28;20435;-69
2022/08/25 03:31:10;;;;;;;8.40;6.13;;;;;;;19.93;86.11;100440.47;5058375;28;20459;-70
2022/08/25 03:33:37;;;;;;;10.13;6.57;;;;;;;19.96;86.23;100434.75;5054872;28;20475;-69
2022/08/25 03:36:06;;;;;;;8.47;6.80;;;;;;;19.90;86.58;100433.41;5054337;28;20535;-69
2022/08/25 03:38:32;;;;;;;7.63;6.73;;;;;;;19.90;86.63;100425.22;5063258;28;20526;-68
2022/08/25 03:41:00;;;;;;;8.50;7.30;;;;;;;19.87;87.33;100425.47;5043131;28;20462;-69
2022/08/25 03:43:27;;;;;;;10.70;6.90;;;;;;;19.97;86.75;100417.38;5058994;28;20440;-69
2022/08/25 03:45:54;;;;;;;7.20;6.50;;;;;;;20.08;85.93;100424.63;5051065;28;20484;-68
2022/08/25 03:48:20;;;;;;;7.90;6.23;;;;;;;20.03;85.75;100421.44;5052198;28;20455;-70
2022/08/25 03:50:49;;;;;;;7.90;6.87;;;;;;;20.04;85.67;100424.06;5060880;28;20459;-69
2022/08/25 03:53:17;;;;;;;7.60;6.90;;;;;;;20.02;86.07;100426.03;5063965;28;20490;-69
2022/08/25 03:55:44;;;;;;;7.17;6.47;;;;;;;19.99;86.68;100431.78;5055855;28;20476;-69
2022/08/25 03:58:11;;;;;;;9.70;6.90;;;;;;;20.05;86.13;100425.78;5058092;28;20452;-69
2022/08/25 04:00:37;;;;;;;7.10;6.50;;;;;;;19.99;86.97;100431.78;5057224;28;20454;-68
2022/08/25 04:03:04;;;;;;;7.60;6.23;;;;;;;19.99;87.15;100431.78;5058473;28;20533;-69
2022/08/25 04:05:30;;;;;;;7.83;7.07;;;;;;;19.82;89.13;100433.19;5058583;28;20465;-68
2022/08/25 04:07:57;;;;;;;8.73;6.60;;;;;;;19.74;90.40;100427.47;5060267;28;20459;-69
2022/08/25 04:10:25;;;;;;;9.93;7.17;;;;;;;19.77;90.12;100421.78;5059263;28;20554;-70
2022/08/25 04:12:51;;;;;;;14.93;7.17;;;;;;;19.77;90.41;100419.91;5050632;28;20478;-69
2022/08/25 04:15:18;;;;;;;9.83;7.23;;;;;;;19.78;90.92;100418.03;5056200;28;20466;-69
2022/08/25 04:17:45;;;;;;;9.83;7.10;;;;;;;19.83;90.59;100413.06;5043870;28;20455;-70
2022/08/25 04:20:11;;;;;;;8.60;7.53;;;;;;;19.84;90.71;100416.66;5047567;28;20938;-69
2022/08/25 04:22:39;;;;;;;8.30;6.80;;;;;;;19.85;91.36;100415.66;5060234;28;20462;-71
2022/08/25 04:25:07;;;;;;;10.50;6.90;;;;;;;19.85;91.43;100419.25;5063904;28;20485;-68
2022/08/25 04:27:36;;;;;;;9.13;7.53;;;;;;;19.89;91.55;100418.00;5088813;22;20489;-72
2022/08/25 04:30:04;;;;;;;14.60;13.10;;;;;;;19.97;90.56;100418.22;5085017;28;20453;-72
2022/08/25 04:32:31;;;;;;;12.37;8.30;;;;;;;19.86;91.41;100414.69;5086853;28;20446;-70
2022/08/25 04:34:58;;;;;;;12.27;11.07;;;;;;;19.93;91.22;100416.75;5085017;28;20486;-70
2022/08/25 04:37:24;;;;;;;14.73;13.20;;;;;;;19.92;91.29;100412.28;5072782;28;20483;-73
2022/08/25 04:39:51;;;;;;;15.60;11.50;;;;;;;19.94;91.24;100420.34;5056338;28;20476;-70
2022/08/25 04:42:18;;;;;;;9.20;8.27;;;;;;;19.97;91.37;100418.22;5053805;28;21000;-72
2022/08/25 04:44:45;;;;;;;8.50;7.20;;;;;;;19.96;91.34;100421.94;5069212;28;20850;-73
2022/08/25 04:47:12;;;;;;;9.20;7.20;;;;;;;19.96;91.92;100423.81;5073669;28;20458;-71
2022/08/25 04:49:39;;;;;;;10.70;6.93;;;;;;;19.97;92.01;100420.09;5056693;28;20435;-71
2022/08/25 04:52:05;;;;;;;8.17;7.30;;;;;;;19.98;92.78;100425.41;5055668;28;20816;-71
2022/08/25 04:54:32;;;;;;;12.40;7.70;;;;;;;19.91;93.72;100423.34;5055178;28;20506;-72
2022/08/25 04:56:58;;;;;;;10.73;7.90;;;;;;;19.91;94.02;100437.88;5055232;28;20463;-74
2022/08/25 04:59:26;;;;;;;11.43;7.10;;;;;;;19.98;93.30;100436.34;5055198;28;20445;-71
2022/08/25 05:01:54;;;;;;;8.70;7.33;;;;;;;20.09;92.30;100432.72;5056072;28;20439;-71
2022/08/25 05:04:21;;;;;;;8.60;7.70;;;;;;;19.99;95.00;100429.03;5056118;28;20509;-74
2022/08/25 05:06:48;;;;;;;8.60;7.70;;;;;;;20.16;93.59;100427.59;5055722;28;20471;-72
2022/08/25 05:09:15;;;;;;;8.23;7.37;;;;;;;20.27;92.95;100424.81;5055549;28;20444;-72
2022/08/25 05:11:41;;;;;;;14.13;8.37;;;;;;;20.35;92.48;100432.34;5055975;28;20957;-72
2022/08/25 05:14:10;;;;;;;9.30;7.47;;;;;;;20.38;93.37;100432.09;5054929;28;20480;-71
2022/08/25 05:16:38;;;;;;;20.63;16.57;;;;;;;20.39;91.67;100436.56;5063407;28;21010;-71
2022/08/25 05:19:07;;;;;;;9.77;8.80;;;;;;;20.51;91.90;100438.25;5064718;28;20447;-71
2022/08/25 05:21:34;;;;;;;13.73;8.87;;;;;;;20.57;91.38;100429.53;5064718;28;20542;-71
2022/08/25 05:24:02;;;;;;;11.23;8.70;;;;;;;20.63;91.62;100424.53;5052324;28;20813;-72
2022/08/25 05:26:30;;;;;;;16.93;14.90;;;;;;;20.74;90.35;100411.66;5069732;28;20478;-73
2022/08/25 05:28:58;;;;;;;18.87;12.10;;;;;;;20.80;90.73;100423.91;5059915;28;20451;-72
2022/08/25 05:31:26;;;;;;;13.03;9.70;;;;;;;20.88;90.75;100421.38;5069793;28;20466;-70
2022/08/25 05:33:53;;;;;;;13.40;9.50;;;;;;;21.00;91.51;100419.41;5067713;28;20489;-71
2022/08/25 05:36:22;;;;;;;15.97;9.67;;;;;;;21.14;90.59;100419.06;5060296;28;20471;-71
2022/08/25 05:38:49;;;;;;;15.13;9.30;;;;;;;21.29;89.02;100414.06;5064989;28;20466;-72
2022/08/25 05:41:18;;;;;;;15.17;9.67;;;;;;;21.45;89.17;100425.41;5059212;28;20447;-73
2022/08/25 05:43:46;;;;;;;11.60;9.10;;;;;;;21.56;88.77;100418.09;5059146;28;20542;-73
2022/08/25 05:46:13;;;;;;;19.53;10.00;;;;;;;21.67;88.15;100415.22;5073061;28;21065;-73
2022/08/25 05:48:40;;;;;;;16.60;11.10;;;;;;;21.73;88.99;100405.56;5065078;28;20484;-71
2022/08/25 05:51:09;;;;;;;12.60;9.70;;;;;;;21.81;88.41;100401.09;5070177;28;20454;-71
2022/08/25 05:53:40;;;;;;;18.00;10.67;;;;;;;21.98;87.86;100404.16;5078486;28;20487;-74
2022/08/25 05:56:07;;;;;;;21.00;11.00;;;;;;;22.04;87.69;100398.97;5066343;28;20509;-74
2022/08/25 05:58:35;;;;;;;12.40;9.73;;;;;;;22.18;86.71;100405.03;5044040;28;20513;-73
2022/08/25 06:02:39;;;;;;;21.53;11.33;;;;;;;22.37;86.22;100423.41;5066641;28;20455;-75
2022/08/25 06:03:48;;;;;;;17.53;11.43;;;;;;;22.45;85.40;100416.19;5070888;28;20455;-72
2022/08/25 06:06:15;;;;;;;15.90;9.67;;;;;;;22.58;84.43;100412.25;5065458;28;20512;-71
2022/08/25 06:08:44;;;;;;;19.70;9.57;;;;;;;22.75;83.37;100414.25;5059469;28;20460;-72
2022/08/25 06:11:11;;;;;;;20.50;10.40;;;;;;;22.87;82.95;100421.28;5056471;28;20451;-71
2022/08/25 06:13:38;;;;;;;15.63;10.10;;;;;;;23.01;81.98;100419.13;5061750;28;20484;-76
2022/08/25 06:16:04;;;;;;;12.43;9.40;;;;;;;23.15;81.53;100423.25;5065751;28;20443;-72
2022/08/25 06:18:31;;;;;;;11.60;10.40;;;;;;;23.24;81.19;100422.34;5051999;28;20446;-72
2022/08/25 06:20:58;;;;;;;15.13;9.90;;;;;;;23.35;80.59;100419.41;5053879;28;20451;-73
2022/08/25 06:23:24;;;;;;;13.07;11.37;;;;;;;23.52;79.36;100420.50;5052550;28;21141;-72
2022/08/25 06:25:55;;;;;;;15.43;10.57;;;;;;;23.66;78.50;100416.34;5053960;28;20814;-72
2022/08/25 06:28:21;;;;;;;24.00;10.10;;;;;;;23.75;78.41;100420.09;5053118;28;20482;-71
2022/08/25 06:30:48;;;;;;;13.37;10.50;;;;;;;23.86;77.44;100419.88;5053533;28;20432;-71
2022/08/25 06:33:15;;;;;;;12.90;10.37;;;;;;;24.01;76.92;100414.69;5058640;28;20487;-72
2022/08/25 06:35:42;;;;;;;11.43;9.60;;;;;;;24.17;75.96;100414.84;5060727;28;20842;-70
2022/08/25 06:38:09;;;;;;;13.47;10.17;;;;;;;24.28;75.66;100405.50;5057187;28;20462;-72
2022/08/25 06:40:35;;;;;;;13.30;10.50;;;;;;;24.36;75.08;100411.09;5056979;28;20534;-72
2022/08/25 06:43:07;;;;;;;13.10;10.27;;;;;;;24.37;74.97;100414.69;5057153;28;20522;-73
2022/08/25 06:45:34;;;;;;;11.37;9.73;;;;;;;24.57;73.97;100415.41;5054286;28;20494;-75
2022/08/25 06:48:01;;;;;;;17.60;11.07;;;;;;;24.74;73.04;100422.78;5054744;28;20467;-73
2022/08/25 06:50:27;;;;;;;10.83;9.33;;;;;;;24.87;72.28;100423.19;5056752;28;20537;-73
2022/08/25 06:52:54;;;;;;;14.60;10.10;;;;;;;25.09;71.27;100424.53;5058791;28;20546;-72
2022/08/25 06:55:20;;;;;;;12.10;9.67;;;;;;;25.26;70.46;100416.38;5069048;28;20474;-73
2022/08/25 06:57:47;;;;;;;10.93;9.83;;;;;;;25.39;70.15;100419.56;5066925;28;20542;-73
2022/08/25 07:00:16;;;;;;;11.80;10.47;;;;;;;25.48;69.47;100412.19;5060799;28;20472;-73
2022/08/25 07:02:42;;;;;;;11.20;10.00;;;;;;;25.62;69.07;100416.19;5067685;28;20468;-72
2022/08/25 07:05:09;;;;;;;12.60;11.40;;;;;;;25.64;68.84;100414.13;5057157;28;20437;-72
2022/08/25 07:07:37;;;;;;;13.03;10.20;;;;;;;25.75;68.40;100408.31;5055273;28;20452;-72
2022/08/25 07:10:04;;;;;;;12.20;9.90;;;;;;;25.85;67.93;100411.81;5082556;28;20447;-73
2022/08/25 07:12:31;;;;;;;14.40;11.20;;;;;;;26.07;67.12;100409.44;5087231;28;20473;-74
2022/08/25 07:14:58;;;;;;;12.40;10.03;;;;;;;26.26;65.82;100402.75;5080274;28;20482;-72
2022/08/25 07:17:26;;;;;;;15.30;10.60;;;;;;;26.32;65.57;100396.53;5056473;28;20454;-72
2022/08/25 07:19:52;;;;;;;11.00;9.63;;;;;;;26.44;65.13;100402.59;5054435;28;20913;-72
2022/08/25 07:22:19;;;;;;;10.40;9.50;;;;;;;26.49;64.53;100397.41;5054158;28;20454;-72
2022/08/25 07:24:45;;;;;;;14.97;9.60;;;;;;;26.94;62.90;100405.16;5057978;28;20519;-72
2022/08/25 07:27:12;;;;;;;12.63;10.00;;;;;;;27.35;60.78;100401.44;5057892;28;20481;-72
2022/08/25 07:29:38;;;;;;;11.03;9.93;;;;;;;27.74;59.14;100401.41;5039741;28;20955;-71
2022/08/25 07:32:05;;;;;;;11.97;9.97;;;;;;;28.12;57.84;100400.69;5066147;28;20465;-73
2022/08/25 07:37:18;;;;;;;12.70;9.30;;;;;;;29.11;53.86;100396.03;5063532;28;21025;-72
2022/08/25 07:39:45;;;;;;;13.50;9.47;;;;;;;29.70;51.99;100397.91;5069403;28;20447;-71
2022/08/25 07:42:13;;;;;;;11.37;9.70;;;;;;;30.21;50.28;100396.97;5058421;28;20554;-72
2022/08/25 07:44:40;;;;;;;11.80;10.60;;;;;;;30.69;48.72;100388.91;5056186;28;21130;-74
2022/08/25 07:47:07;;;;;;;11.77;9.07;;;;;;;30.86;48.09;100389.47;5060361;28;20567;-72
2022/08/25 07:49:35;;;;;;;14.97;9.27;;;;;;;31.55;46.43;100394.22;5057762;28;20447;-73
2022/08/25 07:52:02;;;;;;;9.27;8.37;;;;;;;32.05;45.13;100392.03;5056420;28;20475;-73
2022/08/25 07:54:28;;;;;;;10.50;9.50;;;;;;;32.33;43.83;100402.16;5053333;28;20479;-72
2022/08/25 07:56:55;;;;;;;10.40;9.40;;;;;;;32.70;42.98;100399.84;5055833;28;20499;-71
2022/08/25 07:59:22;;;;;;;9.90;9.00;;;;;;;33.03;42.43;100400.66;5055084;28;20439;-71
2022/08/25 08:01:48;;;;;;;11.33;9.37;;;;;;;32.97;42.12;100403.47;5055550;28;20501;-74
2022/08/25 08:04:15;;;;;;;15.33;8.83;;;;;;;33.60;41.23;100405.72;5055768;28;20443;-72
2022/08/25 08:06:43;;;;;;;16.90;8.47;;;;;;;33.63;41.17;100403.34;5055525;28;20913;-71
2022/08/25 08:09:09;;;;;;;11.00;8.30;;;;;;;34.47;39.14;100395.78;5056369;28;20439;-71
2022/08/25 08:11:39;;;;;;;9.27;8.27;;;;;;;34.82;38.69;100395.28;5055496;28;20454;-74
2022/08/25 08:14:07;;;;;;;9.60;8.23;;;;;;;34.93;38.06;100399.28;5059412;28;20855;-73
2022/08/25 08:16:34;;;;;;;9.27;8.33;;;;;;;34.68;38.39;100400.16;5056542;28;20892;-73
2022/08/25 08:19:01;;;;;;;8.70;7.90;;;;;;;34.73;38.34;100390.22;5040802;28;20439;-72
2022/08/25 08:21:35;;;;;;;8.30;7.60;;;;;;;35.23;37.50;100406.97;5066373;28;20438;-72
2022/08/25 08:24:06;;;;;;;8.10;7.40;;;;;;;35.90;36.18;100407.03;5055301;28;20900;-71
2022/08/25 08:26:35;;;;;;;8.60;7.80;;;;;;;35.09;37.41;100395.88;5055195;28;20467;-73
2022/08/25 08:29:01;;;;;;;12.63;8.63;;;;;;;35.88;36.43;100398.03;5056740;28;20443;-73
2022/08/25 08:31:28;;;;;;;8.70;7.90;;;;;;;36.45;35.50;100394.81;5055369;28;20522;-72
2022/08/25 08:33:56;;;;;;;8.47;7.00;;;;;;;37.36;34.35;100401.03;5041304;28;20486;-71
2022/08/25 08:36:24;;;;;;;8.80;6.83;;;;;;;37.29;34.02;100397.47;5034893;28;20464;-71
2022/08/25 08:38:51;;;;;;;8.47;7.67;;;;;;;37.91;33.02;100397.69;5035044;28;20874;-70
2022/08/25 08:44:37;;;;;;;8.50;7.20;;;;;;;38.84;31.75;100393.78;5038781;28;20543;-72
2022/08/25 08:47:10;;;;;;;8.63;7.70;;;;;;;39.54;30.88;100395.97;5053996;28;20468;-71
2022/08/25 08:49:44;;;;;;;9.20;7.00;;;;;;;39.45;30.74;100391.91;5053887;28;20432;-71
2022/08/25 08:52:14;;;;;;;12.27;7.97;;;;;;;40.30;29.77;100395.22;5038017;28;20443;-72
2022/08/25 08:54:45;;;;;;;8.03;7.17;;;;;;;40.31;30.01;100394.09;5034616;28;20481;-72
2022/08/25 08:57:17;;;;;;;7.90;7.20;;;;;;;40.97;28.97;100395.78;5034653;28;20475;-71
2022/08/25 08:59:49;;;;;;;8.57;6.43;;;;;;;41.33;28.28;100388.41;5034368;28;20521;-73
2022/08/25 09:02:25;;;;;;;7.50;6.77;;;;;;;41.72;28.28;100395.66;5034311;28;20444;-71
2022/08/25 09:04:58;;;;;;;7.40;6.80;;;;;;;42.19;27.38;100397.53;5033663;28;20447;-72
2022/08/25 09:07:30;;;;;;;7.27;6.63;;;;;;;41.81;27.33;100391.19;5034031;28;20828;-72
2022/08/25 09:09:57;;;;;;;8.47;6.90;;;;;;;41.81;27.73;100385.53;5033452;28;20441;-72
2022/08/25 09:12:33;;;;;;;11.93;6.70;;;;;;;42.34;26.99;100386.25;5033764;28;20448;-72
2022/08/25 09:15:09;;;;;;;7.00;5.90;;;;;;;42.45;26.86;100379.47;5038208;28;20483;-72
2022/08/25 09:18:04;;;;;;;7.20;5.37;;;;;;;42.21;26.26;100373.47;5058971;28;20567;-72
2022/08/25 09:20:50;;;;;;;7.03;6.33;;;;;;;42.65;26.63;100369.25;5073213;28;20443;-74
2022/08/25 09:23:31;;;;;;;8.77;5.80;;;;;;;42.42;26.57;100371.53;5056354;28;20459;-73
2022/08/25 09:26:07;;;;;;;7.10;6.13;;;;;;;42.89;26.15;100367.56;5060558;28;20443;-71
2022/08/25 09:28:43;;;;;;;7.10;6.50;;;;;;;43.47;25.58;100364.31;5068467;28;20450;-72
2022/08/25 09:31:17;;;;;;;6.73;6.10;;;;;;;43.71;25.16;100366.50;5057684;28;20439;-72
2022/08/25 09:33:44;;;;;;;7.30;6.70;;;;;;;43.82;24.88;100355.94;5033039;28;20421;-72
2022/08/25 09:36:10;;;;;;;6.73;6.03;;;;;;;43.72;24.95;100352.03;5033300;28;20491;-73
2022/08/25 09:38:37;;;;;;;6.20;5.70;;;;;;;41.89;26.10;100348.22;5046843;28;20458;-72
2022/08/25 09:41:04;;;;;;;6.33;5.83;;;;;;;41.63;26.45;100352.94;5060362;28;20812;-71
2022/08/25 09:43:34;;;;;;;6.47;5.87;;;;;;;43.10;25.36;100342.03;5072892;28;20522;-72
2022/08/25 09:46:10;;;;;;;6.37;5.87;;;;;;;43.53;25.06;100342.44;5053197;28;20439;-72
2022/08/25 09:48:44;;;;;;;6.37;5.63;;;;;;;42.75;25.09;100337.28;5052019;28;20493;-72
2022/08/25 09:51:18;;;;;;;8.00;5.97;;;;;;;43.10;25.25;100330.69;5053175;28;20459;-71
2022/08/25 09:53:51;;;;;;;7.30;5.87;;;;;;;42.43;25.40;100327.13;5052827;28;20481;-71
2022/08/25 09:56:21;;;;;;;6.47;5.67;;;;;;;43.02;24.93;100325.63;5054170;28;21012;-73
2022/08/25 09:58:47;;;;;;;6.33;5.80;;;;;;;42.47;25.55;100326.28;5052639;28;20440;-72
2022/08/25 10:01:17;;;;;;;6.13;5.63;;;;;;;44.06;24.13;100327.75;5052541;28;20443;-71
2022/08/25 10:03:57;;;;;;;6.40;5.90;;;;;;;43.47;24.88;100318.13;5052752;28;20901;-74
2022/08/25 10:06:25;;;;;;;6.40;5.83;;;;;;;45.09;23.70;100307.75;5059075;28;20455;-71
2022/08/25 10:08:56;;;;;;;6.30;5.80;;;;;;;46.16;22.83;100323.38;5063844;28;20444;-71
2022/08/25 10:11:36;;;;;;;7.43;6.27;;;;;;;45.02;22.93;100312.97;5065777;28;20424;-71
2022/08/25 10:14:07;;;;;;;6.93;5.80;;;;;;;46.01;22.34;100306.56;5062058;28;20443;-72
2022/08/25 10:16:35;;;;;;;5.80;5.20;;;;;;;44.88;22.82;100307.16;5066156;28;20487;-72
2022/08/25 10:19:07;;;;;;;5.47;5.00;;;;;;;45.91;22.42;100298.19;5049874;28;20876;-70
2022/08/25 10:21:35;;;;;;;5.13;4.80;;;;;;;46.86;21.55;100292.28;5060219;28;20444;-76
2022/08/25 10:24:04;;;;;;;5.50;5.00;;;;;;;45.36;22.20;100290.94;5045060;28;20455;-72
2022/08/25 10:26:41;;;;;;;10.03;5.80;;;;;;;46.72;22.11;100286.53;5083064;22;20495;-67
2022/08/25 10:29:25;;;;;;;5.93;5.43;;;;;;;46.18;22.11;100281.22;5044643;28;20623;-70
2022/08/25 10:31:57;;;;;;;7.17;6.67;;;;;;;45.65;22.35;100270.09;5046466;28;20442;-69
2022/08/25 10:34:42;;;;;;;6.33;5.63;;;;;;;42.13;25.40;100257.19;5050345;28;20498;-69
2022/08/25 10:37:18;;;;;;;6.17;5.57;;;;;;;41.06;27.33;100253.78;5051389;28;20465;-69
2022/08/25 10:39:52;;;;;;;5.63;5.00;;;;;;;42.21;26.00;100249.00;5049068;28;20458;-69
2022/08/25 10:42:30;;;;;;;5.87;5.37;;;;;;;43.24;24.88;100241.16;5041039;28;20432;-69
2022/08/25 10:48:31;;;;;;;6.23;5.73;;;;;;;44.73;23.25;100240.84;5050576;28;20436;-69
2022/08/25 10:51:08;;;;;;;5.83;5.33;;;;;;;42.55;25.30;100227.75;5032873;28;20424;-70
2022/08/25 10:53:48;;;;;;;5.77;5.27;;;;;;;43.77;24.23;100237.72;5049067;28;20423;-69
2022/08/25 10:56:20;;;;;;;5.83;5.23;;;;;;;44.08;24.12;100237.50;5052865;28;20490;-70
2022/08/25 10:59:16;;;;;;;5.70;5.20;;;;;;;41.93;25.87;100221.25;5053090;28;20471;-69
2022/08/25 11:01:58;;;;;;;6.10;5.67;;;;;;;41.16;26.74;100219.13;5053295;28;20439;-71
2022/08/25 11:04:32;;;;;;;7.63;5.30;;;;;;;42.06;25.55;100224.41;5052878;28;20443;-70
2022/08/25 11:07:03;;;;;;;4.87;4.47;;;;;;;41.79;25.06;100226.63;5033950;28;20495;-70
2022/08/25 11:09:34;;;;;;;6.17;4.53;;;;;;;39.07;27.67;100215.38;5038425;28;20445;-70
2022/08/25 11:12:05;;;;;;;4.90;4.60;;;;;;;38.09;29.33;100219.56;5046319;28;20537;-71
2022/08/25 11:14:37;;;;;;;6.65;5.95;;;;;;;38.88;28.47;100217.66;5044798;28;20820;-69
2022/08/25 11:17:11;;;;;;;5.63;5.13;;;;;;;39.58;27.88;100218.81;5052413;28;20229;-67
2022/08/25 11:19:44;;;;;;;5.90;5.40;;;;;;;38.44;29.46;100207.16;5052545;28;20438;-70
2022/08/25 11:22:16;;;;;;;5.73;4.83;;;;;;;40.75;26.47;100210.47;5049199;28;20503;-69
2022/08/25 11:24:55;;;;;;;6.00;5.40;;;;;;;40.60;26.17;100199.91;5032576;28;20425;-68
2022/08/25 11:27:28;;;;;;;14.80;5.90;;;;;;;41.33;25.33;100206.75;5033583;28;20475;-67
2022/08/25 11:30:02;;;;;;;7.90;4.97;;;;;;;42.32;24.62;100203.72;5046585;28;20432;-69
2022/08/25 11:32:32;;;;;;;5.33;4.80;;;;;;;43.82;23.06;100199.97;5052120;28;20413;-69
2022/08/25 11:35:03;;;;;;;9.70;4.90;;;;;;;44.14;22.87;100207.94;5052302;28;20468;-69
2022/08/25 11:37:31;;;;;;;5.60;5.10;;;;;;;43.03;23.72;100208.34;5043394;28;20945;-67
2022/08/25 11:40:51;;;;;;;4.87;4.37;;;;;;;38.58;27.80;100202.91;5043593;28;20564;-69
2022/08/25 11:43:34;;;;;;;6.33;4.80;;;;;;;36.38;30.37;100195.84;4988089;28;20517;-70